Time;durP1;ratioP1;P1;durP2;ratioP2;P2;SDS_P1;SDS_P2;PMS_P1;PMS_P2;Temp;Humidity;BMP_temperature;BMP_pressure;BME280_temperature;BME280_humidity;BME280_pressure;Samples;Min_cycle;Max_cycle;Signal;HPM_P1;HPM_P2
2022/08/27 00:01:04;;;;;;;;;;;;;;;-142.75;100.00;77107.72;5035722;28;19917;-67
2022/08/27 00:03:29;;;;;;;;;;;;;;;-142.75;100.00;77103.78;5035965;28;19985;-67
2022/08/27 00:05:54;;;;;;;;;;;;;;;-142.75;100.00;77107.72;5035782;28;19924;-67
2022/08/27 00:08:19;;;;;;;;;;;;;;;-142.75;100.00;77113.63;5034859;28;19944;-67
2022/08/27 00:10:45;;;;;;;;;;;;;;;-142.75;100.00;77103.78;5035422;28;20386;-67
2022/08/27 00:13:10;;;;;;;;;;;;;;;-142.75;100.00;77109.69;5035707;28;19996;-67
2022/08/27 00:15:35;;;;;;;;;;;;;;;-142.75;100.00;77099.84;5035742;28;19999;-67
2022/08/27 00:18:00;;;;;;;;;;;;;;;-142.75;100.00;77093.94;5035254;28;20007;-67
2022/08/27 00:20:27;;;;;;;;;;;;;;;-142.75;100.00;77095.91;5035505;28;19913;-67
2022/08/27 00:22:52;;;;;;;;;;;;;;;-142.75;100.00;77107.72;5036169;28;19917;-67
2022/08/27 00:25:18;;;;;;;;;;;;;;;-142.75;100.00;77113.63;5018408;28;19976;-67
2022/08/27 00:27:43;;;;;;;;;;;;;;;-142.75;100.00;77105.75;5017730;28;19920;-67
2022/08/27 00:30:11;;;;;;;;;;;;;;;-142.75;100.00;77090.00;5035170;28;19917;-67
2022/08/27 00:32:37;;;;;;;;;;;;;;;-142.75;100.00;77084.09;5035258;28;19913;-67
2022/08/27 00:35:03;;;;;;;;;;;;;;;-142.75;100.00;77082.13;5035824;28;20401;-68
2022/08/27 00:37:28;;;;;;;;;;;;;;;-142.75;100.00;77086.06;5035787;28;19920;-67
2022/08/27 00:39:53;;;;;;;;;;;;;;;-142.75;100.00;77086.06;5035671;28;19913;-69
2022/08/27 00:42:18;;;;;;;;;;;;;;;-142.75;100.00;77070.31;5036194;28;19936;-68
2022/08/27 00:44:44;;;;;;;;;;;;;;;-142.75;100.00;77078.19;5017755;28;20036;-68
2022/08/27 00:47:11;;;;;;;;;;;;;;;-142.75;100.00;77074.25;5017027;28;19917;-68
2022/08/27 00:49:45;;;;;;;;;;;;;;;-142.75;100.00;77068.34;5017585;28;19964;-68
2022/08/27 00:52:13;;;;;;;;;;;;;;;-142.75;100.00;77064.41;5017647;28;19913;-68
2022/08/27 00:54:39;;;;;;;;;;;;;;;-142.75;100.00;77066.38;5035523;28;19967;-68
2022/08/27 00:57:04;;;;;;;;;;;;;;;-142.75;100.00;77062.44;5035082;28;20345;-68
2022/08/27 00:59:31;;;;;;;;;;;;;;;-142.75;100.00;77072.28;5035341;28;19921;-68
2022/08/27 01:04:41;;;;;;;;;;;;;;;-142.75;100.00;77076.22;5035491;28;19974;-68
2022/08/27 01:07:08;;;;;;;;;;;;;;;-142.75;100.00;77070.31;5034978;28;20332;-68
2022/08/27 01:09:34;;;;;;;;;;;;;;;-142.75;100.00;77058.50;5017010;28;19917;-68
2022/08/27 01:11:59;;;;;;;;;;;;;;;-142.75;100.00;77058.50;5101176;22;20388;-71
2022/08/27 01:14:25;;;;;;;;;;;;;;;-142.75;100.00;77058.50;5090628;28;20523;-69
2022/08/27 01:16:53;;;;;;;;;;;;;;;-142.75;100.00;77074.25;5092978;28;19961;-71
2022/08/27 01:19:23;;;;;;;;;;;;;;;-142.75;100.00;77080.16;5092452;28;19920;-70
2022/08/27 01:22:07;;;;;;;;;;;;;;;-142.75;100.00;77084.09;5093264;28;19912;-71
2022/08/27 01:24:32;;;;;;;;;;;;;;;-142.75;100.00;77084.09;5093204;28;19912;-70
2022/08/27 01:26:58;;;;;;;;;;;;;;;-142.75;100.00;77101.81;5092817;28;19916;-70
2022/08/27 01:29:24;;;;;;;;;;;;;;;-142.75;100.00;77109.69;5093296;28;19912;-70
2022/08/27 01:31:49;;;;;;;;;;;;;;;-142.75;100.00;77119.53;5093284;28;20292;-70
2022/08/27 01:34:14;;;;;;;;;;;;;;;-142.75;100.00;77123.47;5091873;28;19919;-70
2022/08/27 01:36:40;;;;;;;;;;;;;;;-142.75;100.00;77109.69;5091488;28;20400;-70
2022/08/27 01:39:05;;;;;;;;;;;;;;;-142.75;100.00;77139.22;5093068;28;19912;-71
2022/08/27 01:41:31;;;;;;;;;;;;;;;-142.75;100.00;77154.97;5092864;28;20411;-70
2022/08/27 01:43:56;;;;;;;;;;;;;;;-142.75;100.00;77151.03;5092957;28;19912;-71
2022/08/27 01:46:22;;;;;;;;;;;;;;;-142.75;100.00;77154.97;5091538;28;19916;-71
2022/08/27 01:48:47;;;;;;;;;;;;;;;-142.75;100.00;77154.97;5091644;28;20282;-71
2022/08/27 01:51:13;;;;;;;;;;;;;;;-142.75;100.00;77145.13;5092740;28;19912;-71
2022/08/27 01:53:38;;;;;;;;;;;;;;;-142.75;100.00;77154.97;5092747;28;19912;-70
2022/08/27 01:56:03;;;;;;;;;;;;;;;-142.75;100.00;77172.69;5093196;28;19920;-70
2022/08/27 01:58:30;;;;;;;;;;;;;;;-142.75;100.00;77160.88;5091138;28;19912;-70
2022/08/27 02:00:58;;;;;;;;;;;;;;;-142.75;100.00;77166.78;5092576;28;19957;-70
2022/08/27 02:03:23;;;;;;;;;;;;;;;-142.75;100.00;77156.94;5092657;28;19912;-71
2022/08/27 02:05:48;;;;;;;;;;;;;;;-142.75;100.00;77172.69;5091177;28;19923;-70
2022/08/27 02:08:15;;;;;;;;;;;;;;;-142.75;100.00;77186.47;5091010;28;19991;-69
2022/08/27 02:10:41;;;;;;;;;;;;;;;-142.75;100.00;77182.53;5092266;28;19920;-70
2022/08/27 02:13:07;;;;;;;;;;;;;;;-142.75;100.00;77172.69;5092431;28;19916;-69
2022/08/27 02:15:33;;;;;;;;;;;;;;;-142.75;100.00;77174.66;5091218;28;19935;-70
2022/08/27 02:17:59;;;;;;;;;;;;;;;-142.75;100.00;77168.75;5092155;28;19965;-71
2022/08/27 02:20:24;;;;;;;;;;;;;;;-142.75;100.00;77170.72;5092316;28;19912;-70
2022/08/27 02:22:49;;;;;;;;;;;;;;;-142.75;100.00;77180.56;5092536;28;20347;-70
2022/08/27 02:25:15;;;;;;;;;;;;;;;-142.75;100.00;77188.44;5092324;28;20285;-70
2022/08/27 02:27:41;;;;;;;;;;;;;;;-142.75;100.00;77180.56;5091997;28;19920;-70
2022/08/27 02:30:08;;;;;;;;;;;;;;;-142.75;100.00;77182.53;5094167;28;19918;-69
2022/08/27 02:32:33;;;;;;;;;;;;;;;-142.75;100.00;77164.81;5098958;28;19918;-70
2022/08/27 02:34:58;;;;;;;;;;;;;;;-142.75;100.00;77166.78;5099030;28;20006;-70
2022/08/27 02:37:24;;;;;;;;;;;;;;;-142.75;100.00;77172.69;5098714;28;19916;-71
2022/08/27 02:39:49;;;;;;;;;;;;;;;-142.75;100.00;77156.94;5098922;28;19912;-70
2022/08/27 02:42:14;;;;;;;;;;;;;;;-142.75;100.00;77168.75;5098887;28;19921;-70
2022/08/27 02:44:39;;;;;;;;;;;;;;;-142.75;100.00;77176.63;5097682;28;19923;-70
2022/08/27 02:47:05;;;;;;;;;;;;;;;-142.75;100.00;77164.81;5098642;28;19912;-70
2022/08/27 02:49:30;;;;;;;;;;;;;;;-142.75;100.00;77164.81;5098917;28;19916;-70
2022/08/27 02:51:56;;;;;;;;;;;;;;;-142.75;100.00;77172.69;5098722;28;19959;-70
2022/08/27 02:54:22;;;;;;;;;;;;;;;-142.75;100.00;77172.69;5097812;28;19935;-70
2022/08/27 02:56:48;;;;;;;;;;;;;;;-142.75;100.00;77168.75;5098574;28;19924;-70
2022/08/27 02:59:13;;;;;;;;;;;;;;;-142.75;100.00;77164.81;5097534;28;19912;-70
2022/08/27 03:01:39;;;;;;;;;;;;;;;-142.75;100.00;77164.81;5097259;28;19955;-71
2022/08/27 03:04:04;;;;;;;;;;;;;;;-142.75;100.00;77149.06;5098827;28;20478;-70
2022/08/27 03:06:30;;;;;;;;;;;;;;;-142.75;100.00;77139.22;5098787;28;19942;-70
2022/08/27 03:08:55;;;;;;;;;;;;;;;-142.75;100.00;77145.13;5098601;28;19947;-70
2022/08/27 03:11:23;;;;;;;;;;;;;;;-142.75;100.00;77141.19;5098655;28;20354;-70
2022/08/27 03:13:49;;;;;;;;;;;;;;;-142.75;100.00;77133.31;5098712;28;19958;-70
2022/08/27 03:16:14;;;;;;;;;;;;;;;-142.75;100.00;77139.22;5098616;28;19916;-70
2022/08/27 03:18:39;;;;;;;;;;;;;;;-142.75;100.00;77127.41;5098343;28;19961;-70
2022/08/27 03:21:06;;;;;;;;;;;;;;;-142.75;100.00;77139.22;5098529;28;19919;-70
2022/08/27 03:23:34;;;;;;;;;;;;;;;-142.75;100.00;77143.16;5098529;28;19912;-69
2022/08/27 03:26:00;;;;;;;;;;;;;;;-142.75;100.00;77141.19;5098577;28;19919;-70
2022/08/27 03:28:27;;;;;;;;;;;;;;;-142.75;100.00;77147.09;5096980;28;19912;-70
2022/08/27 03:30:57;;;;;;;;;;;;;;;-142.75;100.00;77137.25;5095741;28;19916;-70
2022/08/27 03:33:22;;;;;;;;;;;;;;;-142.75;100.00;77137.25;5098505;28;19912;-70
2022/08/27 03:35:47;;;;;;;;;;;;;;;-142.75;100.00;77125.44;5098405;28;19924;-70
2022/08/27 03:38:13;;;;;;;;;;;;;;;-142.75;100.00;77117.56;5098106;28;20003;-69
2022/08/27 03:40:38;;;;;;;;;;;;;;;-142.75;100.00;77103.78;5098403;28;19915;-70
2022/08/27 03:43:03;;;;;;;;;;;;;;;-142.75;100.00;77101.81;5094522;28;20288;-70
2022/08/27 03:45:29;;;;;;;;;;;;;;;-142.75;100.00;77099.84;5094233;28;19912;-70
2022/08/27 03:47:54;;;;;;;;;;;;;;;-142.75;100.00;77105.75;5094926;28;19912;-70
2022/08/27 03:50:20;;;;;;;;;;;;;;;-142.75;100.00;77117.56;5093759;28;19995;-70
2022/08/27 03:52:45;;;;;;;;;;;;;;;-142.75;100.00;77119.53;5095017;28;20374;-70
2022/08/27 03:55:12;;;;;;;;;;;;;;;-142.75;100.00;77101.81;5095093;28;20003;-70
2022/08/27 03:57:37;;;;;;;;;;;;;;;-142.75;100.00;77105.75;5093238;28;19923;-70
2022/08/27 04:00:04;;;;;;;;;;;;;;;-142.75;100.00;77109.69;5094871;28;19915;-70
2022/08/27 04:02:30;;;;;;;;;;;;;;;-142.75;100.00;77125.44;5094888;28;20301;-69
2022/08/27 04:04:56;;;;;;;;;;;;;;;-142.75;100.00;77133.31;5094793;28;20308;-70
2022/08/27 04:07:21;;;;;;;;;;;;;;;-142.75;100.00;77119.53;5094433;28;19913;-70
2022/08/27 04:09:47;;;;;;;;;;;;;;;-142.75;100.00;77109.69;5093481;28;19912;-70
2022/08/27 04:12:12;;;;;;;;;;;;;;;-142.75;100.00;77101.81;5094530;28;20018;-70
2022/08/27 04:14:37;;;;;;;;;;;;;;;-142.75;100.00;77086.06;5094649;28;19979;-70
2022/08/27 04:17:03;;;;;;;;;;;;;;;-142.75;100.00;77091.97;5092984;28;20403;-70
2022/08/27 04:19:31;;;;;;;;;;;;;;;-142.75;100.00;77097.88;5094590;28;19912;-70
2022/08/27 04:22:01;;;;;;;;;;;;;;;-142.75;100.00;77105.75;5094384;28;19958;-70
2022/08/27 04:24:26;;;;;;;;;;;;;;;-142.75;100.00;77091.97;5094497;28;19916;-71
2022/08/27 04:26:51;;;;;;;;;;;;;;;-142.75;100.00;77084.09;5092823;28;20351;-70
2022/08/27 04:29:17;;;;;;;;;;;;;;;-142.75;100.00;77088.03;5094344;28;19966;-71
2022/08/27 04:31:42;;;;;;;;;;;;;;;-142.75;100.00;77105.75;5094283;28;19912;-71
2022/08/27 04:34:07;;;;;;;;;;;;;;;-142.75;100.00;77109.69;5094288;28;20007;-70
2022/08/27 04:36:32;;;;;;;;;;;;;;;-142.75;100.00;77101.81;5093803;28;20420;-69
2022/08/27 04:38:57;;;;;;;;;;;;;;;-142.75;100.00;77111.66;5094098;28;20445;-70
2022/08/27 04:41:26;;;;;;;;;;;;;;;-142.75;100.00;77109.69;5094016;28;19912;-70
2022/08/27 04:43:51;;;;;;;;;;;;;;;-142.75;100.00;77115.59;5092881;28;19913;-70
2022/08/27 04:46:23;;;;;;;;;;;;;;;-142.75;100.00;77105.75;5094017;28;19919;-70
2022/08/27 04:48:49;;;;;;;;;;;;;;;-142.75;100.00;77131.34;5093744;28;19919;-70
2022/08/27 04:51:14;;;;;;;;;;;;;;;-142.75;100.00;77129.38;5093892;28;19912;-70
2022/08/27 04:53:39;;;;;;;;;;;;;;;-142.75;100.00;77133.31;5093752;28;19923;-70
2022/08/27 04:56:05;;;;;;;;;;;;;;;-142.75;100.00;77147.09;5093776;28;20009;-71
2022/08/27 04:58:30;;;;;;;;;;;;;;;-142.75;100.00;77153.00;5093519;28;20011;-70
2022/08/27 05:00:58;;;;;;;;;;;;;;;-142.75;100.00;77151.03;5093684;28;19912;-70
2022/08/27 05:03:24;;;;;;;;;;;;;;;-142.75;100.00;77135.28;5095377;28;20381;-74
2022/08/27 05:05:51;;;;;;;;;;;;;;;-142.75;100.00;77145.13;5093405;28;19916;-70
2022/08/27 05:08:16;;;;;;;;;;;;;;;-142.75;100.00;77153.00;5093283;28;19908;-70
2022/08/27 05:10:48;;;;;;;;;;;;;;;-142.75;100.00;77160.88;5092144;28;19916;-70
2022/08/27 05:13:14;;;;;;;;;;;;;;;-142.75;100.00;77151.03;5093643;28;19959;-70
2022/08/27 05:15:39;;;;;;;;;;;;;;;-142.75;100.00;77154.97;5093381;28;19935;-70
2022/08/27 05:18:05;;;;;;;;;;;;;;;-142.75;100.00;77172.69;5093085;28;19916;-70
2022/08/27 05:20:31;;;;;;;;;;;;;;;-142.75;100.00;77154.97;5093329;28;19920;-70
2022/08/27 05:22:56;;;;;;;;;;;;;;;-142.75;100.00;77156.94;5093330;28;19919;-70
2022/08/27 05:25:22;;;;;;;;;;;;;;;-142.75;100.00;77125.44;5093384;28;19973;-70
2022/08/27 05:27:47;;;;;;;;;;;;;;;-142.75;100.00;77115.59;5092965;28;19912;-70
2022/08/27 05:30:12;;;;;;;;;;;;;;;-142.75;100.00;77113.63;5093262;28;19958;-70
2022/08/27 05:32:38;;;;;;;;;;;;;;;-142.75;100.00;77101.81;5093068;28;20266;-70
2022/08/27 05:35:04;;;;;;;;;;;;;;;-142.75;100.00;77095.91;5093205;28;19912;-70
2022/08/27 05:37:29;;;;;;;;;;;;;;;-142.75;100.00;77091.97;5092670;28;19924;-70
2022/08/27 05:39:54;;;;;;;;;;;;;;;-142.75;100.00;77080.16;5093041;28;19912;-70
2022/08/27 05:42:20;;;;;;;;;;;;;;;-142.75;100.00;77064.41;5092978;28;20285;-70
2022/08/27 05:44:45;;;;;;;;;;;;;;;-142.75;100.00;77046.69;5093000;28;19912;-71
2022/08/27 05:47:10;;;;;;;;;;;;;;;-142.75;100.00;77032.91;5092558;28;20400;-69
2022/08/27 05:49:36;;;;;;;;;;;;;;;-142.75;100.00;77011.25;5092865;28;19972;-70
2022/08/27 05:52:01;;;;;;;;;;;;;;;-142.75;100.00;76981.72;5090474;28;19923;-70
2022/08/27 05:54:27;;;;;;;;;;;;;;;-142.75;100.00;76948.25;5091697;28;19959;-71
2022/08/27 05:56:52;;;;;;;;;;;;;;;-142.75;100.00;76918.72;5092537;28;19916;-71
2022/08/27 06:02:01;;;;;;;;;;;;;;;-142.75;100.00;76855.72;5092883;28;19920;-71
2022/08/27 06:04:26;;;;;;;;;;;;;;;-142.75;100.00;76812.41;5092358;28;19912;-70
2022/08/27 06:06:52;;;;;;;;;;;;;;;-142.75;100.00;76782.91;5090875;28;19965;-70
2022/08/27 06:09:19;;;;;;;;;;;;;;;-142.75;100.00;76771.09;5092580;28;19912;-70
2022/08/27 06:11:45;;;;;;;;;;;;;;;-142.75;100.00;76757.31;5091131;28;19916;-70
2022/08/27 06:14:11;;;;;;;;;;;;;;;-142.75;100.00;76759.28;5092498;28;19916;-71
2022/08/27 06:16:37;;;;;;;;;;;;;;;-142.75;100.00;76753.38;5091999;28;20376;-70
2022/08/27 06:19:03;;;;;;;;;;;;;;;-142.75;100.00;76749.44;5092601;28;19981;-70
2022/08/27 06:21:28;;;;;;;;;;;;;;;-142.75;100.00;76755.34;5092423;28;19912;-70
2022/08/27 06:23:53;;;;;;;;;;;;;;;-142.75;100.00;76743.53;5092377;28;20334;-70
2022/08/27 06:26:20;;;;;;;;;;;;;;;-142.75;100.00;76741.56;5092358;28;19920;-71
2022/08/27 06:28:45;;;;;;;;;;;;;;;-142.75;100.00;76757.31;5090807;28;20381;-71
2022/08/27 06:31:12;;;;;;;;;;;;;;;-142.75;100.00;76731.72;5090840;28;19920;-70
2022/08/27 06:33:38;;;;;;;;;;;;;;;-142.75;100.00;76737.63;5092321;28;19919;-71
2022/08/27 06:36:05;;;;;;;;;;;;;;;-142.75;100.00;76729.75;5090980;28;19920;-70
2022/08/27 06:38:31;;;;;;;;;;;;;;;-142.75;100.00;76715.97;5091961;28;19916;-70
2022/08/27 06:40:57;;;;;;;;;;;;;;;-142.75;100.00;76715.97;5090905;28;19971;-70
2022/08/27 06:43:22;;;;;;;;;;;;;;;-142.75;100.00;76715.97;5092269;28;19918;-70
2022/08/27 06:45:48;;;;;;;;;;;;;;;-142.75;100.00;76712.03;5090799;28;19913;-70
2022/08/27 06:48:13;;;;;;;;;;;;;;;-142.75;100.00;76704.16;5091864;28;19912;-70
2022/08/27 06:50:39;;;;;;;;;;;;;;;-142.75;100.00;76708.09;5092167;28;19938;-70
2022/08/27 06:53:05;;;;;;;;;;;;;;;-142.75;100.00;76712.03;5092086;28;19919;-70
2022/08/27 06:55:31;;;;;;;;;;;;;;;-142.75;100.00;76696.28;5092063;28;19924;-70
2022/08/27 06:57:56;;;;;;;;;;;;;;;-142.75;100.00;76692.34;5091734;28;19916;-70
2022/08/27 07:00:21;;;;;;;;;;;;;;;-142.75;100.00;76688.41;5091824;28;19916;-71
2022/08/27 07:02:47;;;;;;;;;;;;;;;-142.75;100.00;76668.72;5092081;28;20662;-70
2022/08/27 07:05:12;;;;;;;;;;;;;;;-142.75;100.00;76668.72;5092091;28;19912;-70
2022/08/27 07:07:37;;;;;;;;;;;;;;;-142.75;100.00;76654.94;5091724;28;19919;-69
2022/08/27 07:10:03;;;;;;;;;;;;;;;-142.75;100.00;76647.06;5091756;28;19916;-69
2022/08/27 07:12:28;;;;;;;;;;;;;;;-142.75;100.00;76625.41;5084655;22;19932;-66
2022/08/27 07:14:53;;;;;;;;;;;;;;;-142.75;100.00;76621.47;5035062;28;19932;-66
2022/08/27 07:17:18;;;;;;;;;;;;;;;-142.75;100.00;76621.47;5053683;28;19970;-66
2022/08/27 07:19:44;;;;;;;;;;;;;;;-142.75;100.00;76605.72;5058057;28;19913;-66
2022/08/27 07:22:09;;;;;;;;;;;;;;;-142.75;100.00;76601.78;5058274;28;20341;-66
2022/08/27 07:24:36;;;;;;;;;;;;;;;-142.75;100.00;76597.84;5058160;28;19990;-66
2022/08/27 07:27:02;;;;;;;;;;;;;;;-142.75;100.00;76586.03;5059172;28;19912;-66
2022/08/27 07:29:27;;;;;;;;;;;;;;;-142.75;100.00;76578.16;5058497;28;19912;-66
2022/08/27 07:31:52;;;;;;;;;;;;;;;-142.75;100.00;76566.34;5049329;28;20317;-66
2022/08/27 07:34:17;;;;;;;;;;;;;;;-142.75;100.00;76574.22;5054359;28;19921;-66
2022/08/27 07:36:42;;;;;;;;;;;;;;;-142.75;100.00;76560.44;5053122;28;19956;-67
2022/08/27 07:39:08;;;;;;;;;;;;;;;-142.75;100.00;76554.53;5037954;28;19989;-66
2022/08/27 07:44:23;;;;;;;;;;;;;;;-142.75;100.00;76548.63;5037880;28;19917;-66
2022/08/27 07:44:25;;;;;;;;;;;;;;;-142.75;100.00;76548.63;5038218;28;19913;-66
2022/08/27 07:46:51;;;;;;;;;;;;;;;-142.75;100.00;76540.75;5049352;28;19959;-66
2022/08/27 07:49:17;;;;;;;;;;;;;;;-142.75;100.00;76530.91;5055783;28;19932;-65
2022/08/27 07:51:42;;;;;;;;;;;;;;;-142.75;100.00;76519.13;5044392;28;19912;-66
2022/08/27 07:54:07;;;;;;;;;;;;;;;-142.75;100.00;76505.34;5057024;28;19963;-66
2022/08/27 07:56:33;;;;;;;;;;;;;;;-142.75;100.00;76501.41;5050741;28;19917;-66
2022/08/27 07:58:58;;;;;;;;;;;;;;;-142.75;100.00;76491.56;5053899;28;19909;-66
2022/08/27 08:01:23;;;;;;;;;;;;;;;-142.75;100.00;76491.56;5053454;28;19912;-65
2022/08/27 08:03:49;;;;;;;;;;;;;;;-142.75;100.00;76483.69;5053971;28;19995;-67
2022/08/27 08:06:14;;;;;;;;;;;;;;;-142.75;100.00;76483.69;5047211;28;20363;-65
2022/08/27 08:08:40;;;;;;;;;;;;;;;-142.75;100.00;76491.56;5044598;28;20279;-66
2022/08/27 08:11:06;;;;;;;;;;;;;;;-142.75;100.00;76473.84;5052576;28;19936;-66
2022/08/27 08:13:32;;;;;;;;;;;;;;;-142.75;100.00;76462.03;5044399;28;19920;-67
2022/08/27 08:15:58;;;;;;;;;;;;;;;-142.75;100.00;76454.16;5048152;28;19920;-66
2022/08/27 08:18:23;;;;;;;;;;;;;;;-142.75;100.00;76454.16;5043478;28;19916;-64
2022/08/27 08:20:49;;;;;;;;;;;;;;;-142.75;100.00;76452.19;5043638;28;20340;-66
2022/08/27 08:23:14;;;;;;;;;;;;;;;-142.75;100.00;76444.31;5042176;28;20450;-66
2022/08/27 08:25:40;;;;;;;;;;;;;;;-142.75;100.00;76428.56;5041201;28;19940;-67
2022/08/27 08:28:05;;;;;;;;;;;;;;;-142.75;100.00;76401.00;5040402;28;19917;-67
2022/08/27 08:30:31;;;;;;;;;;;;;;;-142.75;100.00;76393.13;5043710;28;19908;-66
2022/08/27 08:32:56;;;;;;;;;;;;;;;-142.75;100.00;76365.56;5057411;28;20383;-66
2022/08/27 08:35:23;;;;;;;;;;;;;;;-142.75;100.00;76332.13;5057115;28;20397;-67
2022/08/27 08:37:48;;;;;;;;;;;;;;;-142.75;100.00;76300.63;5057087;28;19919;-67
2022/08/27 08:40:24;;;;;;;;;;;;;;;-142.75;100.00;76306.53;5056405;28;20288;-67
2022/08/27 08:42:53;;;;;;;;;;;;;;;-142.75;100.00;76267.16;5056608;28;19908;-67
2022/08/27 08:45:23;;;;;;;;;;;;;;;-142.75;100.00;76265.19;5056322;28;19909;-67
2022/08/27 08:48:15;;;;;;;;;;;;;;;-142.75;100.00;76265.19;5055617;28;19909;-67
2022/08/27 08:50:52;;;;;;;;;;;;;;;-142.75;100.00;76255.34;5052587;28;19913;-66
2022/08/27 08:53:29;;;;;;;;;;;;;;;-142.75;100.00;76212.03;5053442;28;20359;-67
2022/08/27 08:55:57;;;;;;;;;;;;;;;-142.75;100.00;76208.09;5051670;28;19923;-67
2022/08/27 08:58:38;;;;;;;;;;;;;;;-142.75;100.00;76198.28;5054308;28;20007;-67
2022/08/27 09:01:04;;;;;;;;;;;;;;;-142.75;100.00;76196.31;5056104;28;19989;-66
2022/08/27 09:03:32;;;;;;;;;;;;;;;-142.75;100.00;76188.44;5055560;28;20306;-67
2022/08/27 09:06:02;;;;;;;;;;;;;;;-142.75;100.00;76200.25;5056757;28;19917;-67
2022/08/27 09:08:27;;;;;;;;;;;;;;;-142.75;100.00;76176.63;5056100;28;19917;-67
2022/08/27 09:10:56;;;;;;;;;;;;;;;-142.75;100.00;76174.66;5056013;28;20689;-67
2022/08/27 09:13:25;;;;;;;;;;;;;;;-142.75;100.00;76141.19;5054462;28;19955;-67
2022/08/27 09:15:55;;;;;;;;;;;;;;;-142.75;100.00;76125.44;5054389;28;19995;-68
2022/08/27 09:18:20;;;;;;;;;;;;;;;-142.75;100.00;76117.56;5053650;28;19924;-66
2022/08/27 09:20:49;;;;;;;;;;;;;;;-142.75;100.00;76093.94;5054935;28;19913;-67
2022/08/27 09:23:23;;;;;;;;;;;;;;;-142.75;100.00;76082.13;5054978;28;19917;-67
2022/08/27 09:25:48;;;;;;;;;;;;;;;-142.75;100.00;76070.34;5054377;28;19966;-67
2022/08/27 09:31:03;;;;;;;;;;;;;;;-142.75;100.00;76023.09;5052484;28;19966;-67
2022/08/27 09:33:29;;;;;;;;;;;;;;;-142.75;100.00;76005.38;5055151;28;19916;-67
2022/08/27 09:35:54;;;;;;;;;;;;;;;-142.75;100.00;75995.53;5055044;28;20016;-67
2022/08/27 09:38:27;;;;;;;;;;;;;;;-142.75;96.38;75944.38;5055909;28;19920;-67
2022/08/27 09:40:54;;;;;;;;;;;;;;;-142.75;92.13;75871.53;5054188;28;20069;-67
2022/08/27 09:43:22;;;;;;;;;;;;;;;-142.75;86.86;75798.72;5054929;28;20034;-66
2022/08/27 09:45:51;;;;;;;;;;;;;;;-142.75;88.39;75779.03;5053458;28;19920;-65
2022/08/27 09:48:18;;;;;;;;;;;;;;;-142.75;79.68;75747.56;5052552;28;19919;-64
2022/08/27 09:50:50;;;;;;;;;;;;;;;-142.75;80.60;75755.44;5055421;28;19916;-64
2022/08/27 09:53:25;;;;;;;;;;;;;;;-142.75;80.57;75753.47;5055233;28;20007;-64
2022/08/27 09:55:56;;;;;;;;;;;;;;;-142.75;77.62;75771.16;5054205;28;19912;-66
2022/08/27 09:58:33;;;;;;;;;;;;;;;-142.75;83.63;75782.97;5052462;28;19913;-66
2022/08/27 10:01:18;;;;;;;;;;;;;;;-142.75;80.37;75796.75;5052590;28;19966;-65
2022/08/27 10:03:44;;;;;;;;;;;;;;;-142.75;87.54;75814.47;5052697;28;20610;-65
2022/08/27 10:06:10;;;;;;;;;;;;;;;-142.75;84.39;75881.38;5054534;28;19913;-65
2022/08/27 10:08:41;;;;;;;;;;;;;;;-142.75;86.99;75916.81;5053400;28;20271;-66
2022/08/27 10:11:13;;;;;;;;;;;;;;;-142.75;88.39;75956.19;5054772;28;19924;-66
2022/08/27 10:13:56;;;;;;;;;;;;;;;-142.75;94.72;75983.72;5052089;28;19966;-66
2022/08/27 10:16:21;;;;;;;;;;;;;;;-142.75;94.40;75981.75;5053871;28;20003;-65
2022/08/27 10:19:05;;;;;;;;;;;;;;;-142.75;90.99;76005.38;5054289;28;19951;-65
2022/08/27 10:21:44;;;;;;;;;;;;;;;-142.75;92.05;75995.53;5053728;28;19912;-65
2022/08/27 10:24:10;;;;;;;;;;;;;;;-142.75;92.25;76003.41;5055762;28;19935;-65
2022/08/27 10:26:42;;;;;;;;;;;;;;;-142.75;89.42;76032.94;5055559;28;19913;-65
2022/08/27 10:29:23;;;;;;;;;;;;;;;-142.75;97.84;76019.16;5055868;28;19912;-65
2022/08/27 10:32:07;;;;;;;;;;;;;;;-142.75;91.61;75983.72;5055296;28;19913;-66
2022/08/27 10:34:35;;;;;;;;;;;;;;;-142.75;87.94;75969.94;5055416;28;19917;-65
2022/08/27 10:37:13;;;;;;;;;;;;;;;-142.75;94.02;75952.25;5053750;28;19921;-65
2022/08/27 10:39:57;;;;;;;;;;;;;;;-142.75;91.13;75893.19;5052103;28;19916;-66
2022/08/27 10:42:26;;;;;;;;;;;;;;;-142.75;81.90;75851.88;5052199;28;20009;-65
2022/08/27 10:45:08;;;;;;;;;;;;;;;-142.75;77.70;75779.03;5053955;28;20382;-65
2022/08/27 10:47:34;;;;;;;;;;;;;;;-142.75;79.84;75844.00;5052431;28;19939;-65
2022/08/27 10:49:59;;;;;;;;;;;;;;;-142.75;84.30;75879.41;5053963;28;19913;-65
2022/08/27 10:52:41;;;;;;;;;;;;;;;-142.75;89.31;75910.91;5056197;28;19936;-66
2022/08/27 10:55:20;;;;;;;;;;;;;;;-142.75;85.77;75954.22;5056028;28;19913;-65
2022/08/27 10:57:48;;;;;;;;;;;;;;;-142.75;92.29;75964.03;5055433;28;19916;-66
2022/08/27 11:00:16;;;;;;;;;;;;;;;-142.75;93.25;75983.72;5058482;28;19923;-65
2022/08/27 11:02:53;;;;;;;;;;;;;;;-142.75;89.19;75877.44;5057995;28;19919;-65
2022/08/27 11:05:18;;;;;;;;;;;;;;;-142.75;85.14;75916.81;5058403;28;19913;-65
2022/08/27 11:07:46;;;;;;;;;;;;;;;-142.75;86.39;75971.91;5057595;28;19919;-64
2022/08/27 11:10:14;;;;;;;;;;;;;;;-142.75;87.19;75979.78;5057439;28;19917;-65
2022/08/27 11:12:43;;;;;;;;;;;;;;;-142.75;89.99;76019.16;5057251;28;19963;-63
2022/08/27 11:15:16;;;;;;;;;;;;;;;-142.75;93.79;76048.69;5056596;28;19970;-65
2022/08/27 11:17:41;;;;;;;;;;;;;;;-142.75;96.78;76101.81;5051900;28;20337;-65
2022/08/27 11:20:07;;;;;;;;;;;;;;;-142.75;99.48;76109.69;5037909;28;19913;-65
2022/08/27 11:22:36;;;;;;;;;;;;;;;-142.75;98.49;76086.06;5037678;28;19967;-65
2022/08/27 11:25:01;;;;;;;;;;;;;;;-142.75;93.59;76090.00;5037295;28;20356;-65
2022/08/27 11:27:29;;;;;;;;;;;;;;;-142.75;100.00;76097.88;5053918;28;19923;-65
2022/08/27 11:30:06;;;;;;;;;;;;;;;-142.75;100.00;76099.84;5057090;28;20007;-65
2022/08/27 11:32:42;;;;;;;;;;;;;;;-142.75;100.00;76095.91;5057467;28;19958;-64
2022/08/27 11:35:19;;;;;;;;;;;;;;;-142.75;100.00;76153.00;5059691;28;19912;-65
2022/08/27 11:37:54;;;;;;;;;;;;;;;-142.75;100.00;76190.41;5058407;28;19917;-64
2022/08/27 11:40:19;;;;;;;;;;;;;;;-142.75;100.00;76160.88;5057938;28;19920;-65
2022/08/27 11:42:47;;;;;;;;;;;;;;;-142.75;100.00;76170.72;5057387;28;19912;-66
2022/08/27 11:45:18;;;;;;;;;;;;;;;-142.75;100.00;76168.75;5057939;28;19959;-66
2022/08/27 11:47:50;;;;;;;;;;;;;;;-142.75;100.00;76145.13;5056266;28;19920;-65
2022/08/27 11:50:18;;;;;;;;;;;;;;;-142.75;100.00;76109.69;5054838;28;19952;-65
2022/08/27 11:52:53;;;;;;;;;;;;;;;-142.75;100.00;76086.06;5058200;28;19917;-65
2022/08/27 11:55:18;;;;;;;;;;;;;;;-142.75;100.00;76115.59;5057296;28;19912;-65
2022/08/27 11:57:43;;;;;;;;;;;;;;;-142.75;100.00;76107.72;5056758;28;20335;-65
2022/08/27 12:00:14;;;;;;;;;;;;;;;-142.75;100.00;76105.75;5056744;28;19959;-65
2022/08/27 12:02:40;;;;;;;;;;;;;;;-142.75;100.00;76115.59;5055834;28;19919;-65
2022/08/27 12:05:18;;;;;;;;;;;;;;;-142.75;100.00;76117.56;5057209;28;20007;-65
2022/08/27 12:07:45;;;;;;;;;;;;;;;-142.75;100.00;76101.81;5055612;28;19917;-65
2022/08/27 12:10:22;;;;;;;;;;;;;;;-142.75;98.23;76078.19;5056333;28;19913;-65
2022/08/27 12:12:51;;;;;;;;;;;;;;;-142.75;96.21;76064.44;5055524;28;19924;-65
2022/08/27 12:15:37;;;;;;;;;;;;;;;-142.75;94.50;76060.50;5055992;28;19913;-65
2022/08/27 12:18:10;;;;;;;;;;;;;;;-142.75;88.36;76058.53;5054668;28;19916;-65
2022/08/27 12:20:52;;;;;;;;;;;;;;;-142.75;91.19;76011.28;5056288;28;20024;-65
2022/08/27 12:23:42;;;;;;;;;;;;;;;-142.75;89.53;75989.63;5056026;28;20555;-65
2022/08/27 12:26:27;;;;;;;;;;;;;;;-142.75;85.55;75985.69;5056312;28;19920;-65
2022/08/27 12:29:13;;;;;;;;;;;;;;;-142.75;86.83;75977.81;5055647;28;19995;-65